createdAt,value
2019-06-01T00:01:16.825Z,100930.88
2019-06-01T00:03:46.420Z,100936.82
2019-06-01T00:06:14.965Z,100933.30
2019-06-01T00:08:43.424Z,100939.94
2019-06-01T00:11:11.956Z,100936.92
2019-06-01T00:13:41.531Z,100938.94
2019-06-01T00:16:10.092Z,100937.79
2019-06-01T00:18:39.744Z,100943.94
2019-06-01T00:21:08.306Z,100938.09
2019-06-01T00:23:36.841Z,100935.16
2019-06-01T00:26:05.335Z,100932.88
2019-06-01T00:28:33.779Z,100931.44
2019-06-01T00:31:02.253Z,100936.55
2019-06-01T00:33:30.689Z,100933.47
2019-06-01T00:35:59.125Z,100934.27
2019-06-01T00:38:27.593Z,100932.88
2019-06-01T00:40:56.027Z,100938.90
2019-06-01T00:43:24.602Z,100941.09
2019-06-01T00:45:53.256Z,100941.38
2019-06-01T00:48:21.773Z,100941.56
2019-06-01T00:50:51.013Z,100940.75
2019-06-01T00:53:19.613Z,100944.14
2019-06-01T00:55:49.343Z,100946.98
2019-06-01T00:58:17.993Z,100947.75
2019-06-01T01:00:47.809Z,100943.84
2019-06-01T01:03:16.845Z,100945.19
2019-06-01T01:05:46.940Z,100941.23
2019-06-01T01:08:15.582Z,100938.84
2019-06-01T01:10:44.816Z,100932.38
2019-06-01T01:13:15.273Z,100936.52
2019-06-01T01:15:43.753Z,100938.95
2019-06-01T01:18:12.663Z,100937.82
2019-06-01T01:20:41.263Z,100938.34
2019-06-01T01:23:09.871Z,100933.19
2019-06-01T01:25:38.441Z,100933.77
2019-06-01T01:28:06.938Z,100933.80
2019-06-01T01:30:35.537Z,100932.21
2019-06-01T01:33:04.220Z,100930.38
2019-06-01T01:35:32.729Z,100928.58
2019-06-01T01:38:01.266Z,100934.72
2019-06-01T01:40:29.858Z,100932.84
2019-06-01T01:42:58.925Z,100930.17
2019-06-01T01:45:27.638Z,100927.95
2019-06-01T01:47:57.181Z,100930.95
2019-06-01T01:50:27.259Z,100929.73
2019-06-01T01:52:57.107Z,100935.13
2019-06-01T01:55:25.860Z,100924.16
2019-06-01T01:57:55.384Z,100928.17
2019-06-01T02:00:36.178Z,100924.09
2019-06-01T02:03:05.752Z,100921.19
2019-06-01T02:05:34.222Z,100923.91
2019-06-01T02:08:02.839Z,100918.33
2019-06-01T02:10:31.423Z,100925.92
2019-06-01T02:12:59.844Z,100922.11
2019-06-01T02:15:28.370Z,100931.21
2019-06-01T02:17:58.122Z,100929.48
2019-06-01T02:20:26.727Z,100926.05
2019-06-01T02:22:56.682Z,100918.72
2019-06-01T02:25:25.336Z,100927.86
2019-06-01T02:27:54.968Z,100922.38
2019-06-01T02:30:23.646Z,100927.72
2019-06-01T02:32:53.637Z,100925.05
2019-06-01T02:35:22.276Z,100928.61
2019-06-01T02:37:50.752Z,100931.91
2019-06-01T02:40:19.819Z,100926.87
2019-06-01T02:42:49.159Z,100927.16
2019-06-01T02:45:20.110Z,100923.94
2019-06-01T02:47:48.540Z,100924.92
2019-06-01T02:50:19.406Z,100927.16
2019-06-01T02:52:47.938Z,100925.39
2019-06-01T02:55:18.585Z,100928.93
2019-06-01T02:57:47.172Z,100925.91
2019-06-01T03:00:17.742Z,100927.00
2019-06-01T03:02:47.508Z,100927.41
2019-06-01T03:05:16.020Z,100922.17
2019-06-01T03:07:46.267Z,100923.78
2019-06-01T03:10:15.242Z,100915.63
2019-06-01T03:12:46.131Z,100917.99
2019-06-01T03:15:16.203Z,100920.39
2019-06-01T03:17:49.049Z,100920.91
2019-06-01T03:20:18.179Z,100918.87
2019-06-01T03:22:49.684Z,100918.80
2019-06-01T03:25:18.192Z,100916.52
2019-06-01T03:27:49.704Z,100911.66
2019-06-01T03:30:21.260Z,100914.20
2019-06-01T03:32:49.726Z,100916.08
2019-06-01T03:35:18.314Z,100918.55
2019-06-01T03:37:47.297Z,100913.88
2019-06-01T03:40:23.833Z,100918.78
2019-06-01T03:42:46.121Z,100915.05
2019-06-01T03:45:15.002Z,100914.28
2019-06-01T03:47:44.071Z,100913.20
2019-06-01T03:50:13.236Z,100914.31
2019-06-01T03:52:41.987Z,100911.23
2019-06-01T03:55:10.665Z,100908.98
2019-06-01T03:57:39.120Z,100915.77
2019-06-01T04:00:12.033Z,100921.67
2019-06-01T04:02:40.629Z,100920.19
2019-06-01T04:05:09.334Z,100917.63
2019-06-01T04:07:39.046Z,100920.80
2019-06-01T04:10:08.114Z,100926.36
2019-06-01T04:12:36.542Z,100922.79
2019-06-01T04:15:10.120Z,100922.20
2019-06-01T04:17:37.102Z,100924.46
2019-06-01T04:20:09.863Z,100929.65
2019-06-01T04:22:38.671Z,100930.88
2019-06-01T04:25:08.304Z,100927.81
2019-06-01T04:27:36.854Z,100933.55
2019-06-01T04:30:07.255Z,100933.48
2019-06-01T04:32:48.764Z,100935.70
2019-06-01T04:35:07.409Z,100930.38
2019-06-01T04:37:36.049Z,100933.36
2019-06-01T04:40:07.421Z,100933.34
2019-06-01T04:42:36.004Z,100937.33
2019-06-01T04:45:07.190Z,100930.24
2019-06-01T04:47:36.636Z,100939.09
2019-06-01T04:50:06.807Z,100935.94
2019-06-01T04:52:35.427Z,100933.08
2019-06-01T04:55:07.120Z,100938.08
2019-06-01T04:57:35.810Z,100939.00
2019-06-01T05:00:22.657Z,100934.43
2019-06-01T05:02:39.430Z,100940.42
2019-06-01T05:05:09.343Z,100933.09
2019-06-01T05:07:37.860Z,100943.72
2019-06-01T05:10:09.544Z,100943.80
2019-06-01T05:12:38.096Z,100957.12
2019-06-01T05:15:09.978Z,100958.47
2019-06-01T05:17:38.641Z,100951.13
2019-06-01T05:20:08.395Z,100949.33
2019-06-01T05:22:36.988Z,100954.27
2019-06-01T05:25:07.262Z,100951.83
2019-06-01T05:27:35.768Z,100953.86
2019-06-01T05:30:07.303Z,100956.12
2019-06-01T05:32:36.002Z,100959.99
2019-06-01T05:35:05.689Z,100955.02
2019-06-01T05:37:34.149Z,100958.56
2019-06-01T05:40:02.577Z,100957.05
2019-06-01T05:42:31.022Z,100961.92
2019-06-01T05:44:59.482Z,100952.06
2019-06-01T05:47:27.917Z,100954.83
2019-06-01T05:49:56.351Z,100957.96
2019-06-01T05:52:25.004Z,100952.41
2019-06-01T05:54:53.463Z,100955.27
2019-06-01T05:57:23.264Z,100950.88
2019-06-01T05:59:51.822Z,100952.22
2019-06-01T06:02:21.514Z,100946.21
2019-06-01T06:04:50.223Z,100953.73
2019-06-01T06:07:18.995Z,100954.25
2019-06-01T06:09:47.561Z,100953.45
2019-06-01T06:12:17.293Z,100956.09
2019-06-01T06:14:45.891Z,100962.62
2019-06-01T06:17:16.218Z,100964.48
2019-06-01T06:19:44.716Z,100968.81
2019-06-01T06:22:14.137Z,100965.42
2019-06-01T06:24:42.798Z,100967.88
2019-06-01T06:27:12.350Z,100965.22
2019-06-01T06:29:40.961Z,100961.46
2019-06-01T06:32:09.559Z,100955.48
2019-06-01T06:34:38.005Z,100955.87
2019-06-01T06:37:06.487Z,100960.88
2019-06-01T06:39:35.063Z,100956.80
2019-06-01T06:42:03.573Z,100956.25
2019-06-01T06:44:32.129Z,100954.20
2019-06-01T06:47:00.645Z,100951.70
2019-06-01T06:49:29.150Z,100953.92
2019-06-01T06:51:57.598Z,100951.64
2019-06-01T06:54:26.180Z,100958.48
2019-06-01T06:56:54.701Z,100959.00
2019-06-01T06:59:24.480Z,100952.42
2019-06-01T07:01:53.080Z,100955.59
2019-06-01T07:04:21.602Z,100955.01
2019-06-01T07:06:50.239Z,100956.84
2019-06-01T07:09:19.875Z,100944.01
2019-06-01T07:11:50.973Z,100949.20
2019-06-01T07:14:19.294Z,100946.28
2019-06-01T07:16:47.830Z,100953.55
2019-06-01T07:19:16.256Z,100951.47
2019-06-01T07:21:44.731Z,100950.22
2019-06-01T07:24:13.190Z,100950.42
2019-06-01T07:26:41.609Z,100949.53
2019-06-01T07:29:10.165Z,100947.36
2019-06-01T07:31:38.646Z,100948.38
2019-06-01T07:34:07.149Z,100949.91
2019-06-01T07:36:35.793Z,100942.10
2019-06-01T07:39:06.003Z,100942.34
2019-06-01T07:41:34.693Z,100938.38
2019-06-01T07:44:03.647Z,100937.35
2019-06-01T07:46:33.245Z,100942.05
2019-06-01T07:49:01.841Z,100929.23
2019-06-01T07:51:31.662Z,100931.15
2019-06-01T07:54:00.286Z,100925.53
2019-06-01T07:56:28.746Z,100934.80
2019-06-01T07:58:57.279Z,100935.98
2019-06-01T08:01:27.144Z,100935.09
2019-06-01T08:03:55.884Z,100933.19
2019-06-01T08:06:26.058Z,100937.92
2019-06-01T08:08:54.521Z,100934.63
2019-06-01T08:11:25.486Z,100928.40
2019-06-01T08:13:53.320Z,100925.62
2019-06-01T08:16:21.751Z,100925.13
2019-06-01T08:18:53.058Z,100919.67
2019-06-01T08:21:20.400Z,100922.58
2019-06-01T08:23:48.844Z,100916.62
2019-06-01T08:26:19.944Z,100921.75
2019-06-01T08:28:47.471Z,100922.02
2019-06-01T08:31:15.933Z,100919.50
2019-06-01T08:33:44.369Z,100920.86
2019-06-01T08:36:12.859Z,100919.11
2019-06-01T08:38:41.291Z,100915.06
2019-06-01T08:41:09.773Z,100917.95
2019-06-01T08:43:38.374Z,100914.86
2019-06-01T08:46:06.907Z,100908.95
2019-06-01T08:48:35.435Z,100908.44
2019-06-01T08:51:04.021Z,100901.38
2019-06-01T08:53:32.459Z,100905.66
2019-06-01T08:56:00.922Z,100902.00
2019-06-01T08:58:30.375Z,100903.19
2019-06-01T09:00:58.897Z,100898.69
2019-06-01T09:03:27.747Z,100898.53
2019-06-01T09:05:56.266Z,100892.12
2019-06-01T09:08:25.994Z,100900.52
2019-06-01T09:10:54.946Z,100896.33
2019-06-01T09:13:23.504Z,100897.82
2019-06-01T09:15:51.941Z,100898.73
2019-06-01T09:18:20.405Z,100895.94
2019-06-01T09:20:48.902Z,100895.67
2019-06-01T09:23:17.339Z,100898.18
2019-06-01T09:25:45.780Z,100899.04
2019-06-01T09:28:14.245Z,100895.02
2019-06-01T09:30:42.780Z,100896.68
2019-06-01T09:33:11.220Z,100895.22
2019-06-01T09:35:52.647Z,100890.45
2019-06-01T09:38:10.017Z,100893.07
2019-06-01T09:40:38.457Z,100894.18
2019-06-01T09:43:06.999Z,100892.27
2019-06-01T09:45:36.302Z,100896.94
2019-06-01T09:48:05.163Z,100897.74
2019-06-01T09:50:33.643Z,100893.48
2019-06-01T09:53:02.081Z,100891.17
2019-06-01T09:55:31.416Z,100883.59
2019-06-01T09:58:00.779Z,100886.69
2019-06-01T10:00:30.346Z,100881.63
2019-06-01T10:02:58.896Z,100876.04
2019-06-01T10:05:28.324Z,100876.72
2019-06-01T10:07:56.910Z,100870.44
2019-06-01T10:10:25.483Z,100863.79
2019-06-01T10:12:53.947Z,100858.92
2019-06-01T10:15:22.459Z,100861.66
2019-06-01T10:17:50.952Z,100865.87
2019-06-01T10:20:19.678Z,100859.78
2019-06-01T10:22:48.107Z,100860.97
2019-06-01T10:25:16.633Z,100856.77
2019-06-01T10:27:45.210Z,100856.80
2019-06-01T10:30:13.990Z,100858.37
2019-06-01T10:32:42.462Z,100860.48
2019-06-01T10:35:11.180Z,100855.86
2019-06-01T10:37:41.566Z,100854.94
2019-06-01T10:40:10.694Z,100849.73
2019-06-01T10:42:39.856Z,100848.65
2019-06-01T10:45:08.914Z,100850.99
2019-06-01T10:47:38.298Z,100850.48
2019-06-01T10:50:07.519Z,100840.83
2019-06-01T10:52:36.269Z,100843.33
2019-06-01T10:55:06.770Z,100841.11
2019-06-01T10:57:36.591Z,100835.02
2019-06-01T11:00:10.444Z,100838.01
2019-06-01T11:02:39.025Z,100838.27
2019-06-01T11:05:08.163Z,100840.81
2019-06-01T11:07:36.904Z,100834.27
2019-06-01T11:10:11.090Z,100832.14
2019-06-01T11:12:41.106Z,100832.52
2019-06-01T11:15:10.072Z,100827.44
2019-06-01T11:17:39.213Z,100822.62
2019-06-01T11:20:09.098Z,100819.14
2019-06-01T11:22:37.721Z,100814.66
2019-06-01T11:25:06.771Z,100821.70
2019-06-01T11:27:35.626Z,100822.27
2019-06-01T11:30:07.232Z,100821.01
2019-06-01T11:32:36.047Z,100811.56
2019-06-01T11:35:06.625Z,100805.70
2019-06-01T11:37:36.168Z,100811.69
2019-06-01T11:40:06.635Z,100802.66
2019-06-01T11:42:35.193Z,100798.70
2019-06-01T11:45:06.864Z,100793.19
2019-06-01T11:47:35.317Z,100800.23
2019-06-01T11:50:06.494Z,100798.20
2019-06-01T11:52:35.036Z,100787.97
2019-06-01T11:55:05.142Z,100796.70
2019-06-01T11:57:33.590Z,100791.61
2019-06-01T12:00:02.031Z,100778.63
2019-06-01T12:02:30.554Z,100778.92
2019-06-01T12:04:59.118Z,100772.28
2019-06-01T12:07:27.550Z,100770.99
2019-06-01T12:09:56.080Z,100765.53
2019-06-01T12:12:24.515Z,100769.50
2019-06-01T12:14:53.019Z,100758.95
2019-06-01T12:17:21.568Z,100758.63
2019-06-01T12:19:50.082Z,100757.29
2019-06-01T12:22:18.575Z,100752.34
2019-06-01T12:24:47.475Z,100745.67
2019-06-01T12:27:16.065Z,100747.14
2019-06-01T12:29:45.749Z,100747.41
2019-06-01T12:32:14.489Z,100744.71
2019-06-01T12:34:44.025Z,100740.62
2019-06-01T12:37:12.536Z,100743.95
2019-06-01T12:39:42.278Z,100740.93
2019-06-01T12:42:11.086Z,100734.17
2019-06-01T12:44:39.784Z,100737.46
2019-06-01T12:47:08.446Z,100729.33
2019-06-01T12:49:36.885Z,100727.37
2019-06-01T12:52:05.384Z,100721.59
2019-06-01T12:54:34.144Z,100721.32
2019-06-01T12:57:02.637Z,100720.56
2019-06-01T12:59:31.063Z,100718.92
2019-06-01T13:01:59.550Z,100712.00
2019-06-01T13:04:27.990Z,100714.55
2019-06-01T13:06:56.766Z,100714.26
2019-06-01T13:09:25.273Z,100705.16
2019-06-01T13:11:53.679Z,100706.05
2019-06-01T13:14:22.125Z,100698.27
2019-06-01T13:17:05.954Z,100699.03
2019-06-01T13:19:20.922Z,100688.02
2019-06-01T13:21:51.825Z,100693.02
2019-06-01T13:24:19.690Z,100686.88
2019-06-01T13:26:48.177Z,100677.17
2019-06-01T13:29:16.646Z,100678.93
2019-06-01T13:31:46.131Z,100680.63
2019-06-01T13:34:14.635Z,100672.53
2019-06-01T13:36:44.481Z,100672.50
2019-06-01T13:39:13.180Z,100669.09
2019-06-01T13:41:42.912Z,100670.72
2019-06-01T13:44:11.599Z,100671.52
2019-06-01T13:46:40.216Z,100669.03
2019-06-01T13:49:08.764Z,100658.34
2019-06-01T13:51:37.171Z,100662.23
2019-06-01T13:54:05.730Z,100656.81
2019-06-01T13:56:34.157Z,100652.31
2019-06-01T13:59:02.709Z,100640.41
2019-06-01T14:01:31.307Z,100644.41
2019-06-01T14:03:59.750Z,100637.43
2019-06-01T14:06:28.182Z,100634.63
2019-06-01T14:08:56.647Z,100639.55
2019-06-01T14:11:25.095Z,100635.56
2019-06-01T14:13:54.215Z,100629.91
2019-06-01T14:16:22.787Z,100626.09
2019-06-01T14:18:52.075Z,100624.55
2019-06-01T14:21:20.596Z,100621.55
2019-06-01T14:23:50.109Z,100619.76
2019-06-01T14:26:18.619Z,100623.20
2019-06-01T14:28:48.152Z,100618.08
2019-06-01T14:31:16.829Z,100610.41
2019-06-01T14:33:46.485Z,100610.15
2019-06-01T14:36:15.131Z,100610.11
2019-06-01T14:38:47.688Z,100607.84
2019-06-01T14:41:13.841Z,100605.62
2019-06-01T14:43:42.261Z,100599.45
2019-06-01T14:46:10.820Z,100605.98
2019-06-01T14:48:39.250Z,100600.20
2019-06-01T14:51:07.757Z,100603.67
2019-06-01T14:53:36.546Z,100598.78
2019-06-01T14:56:05.441Z,100593.39
2019-06-01T14:58:34.042Z,100596.74
2019-06-01T15:01:02.719Z,100587.16
2019-06-01T15:03:31.147Z,100584.00
2019-06-01T15:05:59.591Z,100577.78
2019-06-01T15:08:28.081Z,100580.55
2019-06-01T15:10:57.165Z,100574.28
2019-06-01T15:13:25.687Z,100575.91
2019-06-01T15:15:55.562Z,100572.75
2019-06-01T15:18:24.101Z,100569.05
2019-06-01T15:20:53.746Z,100567.00
2019-06-01T15:23:22.374Z,100570.84
2019-06-01T15:25:56.452Z,100566.34
2019-06-01T15:28:24.960Z,100566.77
2019-06-01T15:30:53.406Z,100567.44
2019-06-01T15:33:21.853Z,100563.57
2019-06-01T15:35:52.135Z,100558.65
2019-06-01T15:38:20.547Z,100560.33
2019-06-01T15:40:48.978Z,100549.95
2019-06-01T15:43:17.420Z,100547.41
2019-06-01T15:45:45.877Z,100547.80
2019-06-01T15:48:14.312Z,100541.50
2019-06-01T15:50:42.744Z,100538.91
2019-06-01T15:53:11.210Z,100538.41
2019-06-01T15:55:39.741Z,100536.35
2019-06-01T15:58:08.240Z,100538.97
2019-06-01T16:00:36.781Z,100530.67
2019-06-01T16:03:05.347Z,100526.41
2019-06-01T16:05:33.796Z,100525.03
2019-06-01T16:08:03.583Z,100521.44
2019-06-01T16:10:32.390Z,100524.31
2019-06-01T16:13:01.634Z,100522.42
2019-06-01T16:15:30.231Z,100521.36
2019-06-01T16:18:00.119Z,100523.18
2019-06-01T16:20:28.676Z,100527.83
2019-06-01T16:22:58.086Z,100525.30
2019-06-01T16:25:26.627Z,100517.16
2019-06-01T16:27:56.503Z,100517.70
2019-06-01T16:30:25.201Z,100519.09
2019-06-01T16:32:54.453Z,100509.66
2019-06-01T16:35:23.122Z,100518.19
2019-06-01T16:37:51.815Z,100510.83
2019-06-01T16:40:20.911Z,100512.47
2019-06-01T16:42:49.410Z,100516.36
2019-06-01T16:45:20.356Z,100519.70
2019-06-01T16:47:48.785Z,100514.63
2019-06-01T16:50:17.368Z,100517.81
2019-06-01T16:52:45.917Z,100514.99
2019-06-01T16:55:14.591Z,100508.55
2019-06-01T16:57:43.168Z,100511.50
2019-06-01T17:00:12.759Z,100510.92
2019-06-01T17:02:41.357Z,100502.77
2019-06-01T17:05:11.926Z,100499.30
2019-06-01T17:07:40.558Z,100505.84
2019-06-01T17:10:24.907Z,100503.04
2019-06-01T17:12:43.301Z,100502.61
2019-06-01T17:15:10.891Z,100501.48
2019-06-01T17:17:39.391Z,100500.45
2019-06-01T17:20:09.597Z,100495.20
2019-06-01T17:22:38.123Z,100500.53
2019-06-01T17:25:07.953Z,100499.08
2019-06-01T17:27:36.493Z,100497.63
2019-06-01T17:30:09.781Z,100497.54
2019-06-01T17:32:35.749Z,100494.70
2019-06-01T17:35:05.149Z,100500.31
2019-06-01T17:37:33.670Z,100498.98
2019-06-01T17:40:02.611Z,100497.56
2019-06-01T17:42:31.144Z,100501.18
2019-06-01T17:45:00.820Z,100494.84
2019-06-01T17:47:29.724Z,100498.09
2019-06-01T17:49:58.224Z,100499.35
2019-06-01T17:52:26.684Z,100494.73
2019-06-01T17:54:55.194Z,100499.09
2019-06-01T17:57:23.692Z,100488.57
2019-06-01T17:59:52.233Z,100483.38
2019-06-01T18:02:20.661Z,100485.64
2019-06-01T18:04:49.161Z,100487.31
2019-06-01T18:07:17.837Z,100486.69
2019-06-01T18:09:46.340Z,100485.91
2019-06-01T18:12:14.770Z,100491.00
2019-06-01T18:14:43.285Z,100492.13
2019-06-01T18:17:12.420Z,100490.20
2019-06-01T18:19:41.067Z,100484.35
2019-06-01T18:22:10.924Z,100483.32
2019-06-01T18:24:39.525Z,100482.30
2019-06-01T18:27:08.544Z,100483.43
2019-06-01T18:29:39.292Z,100480.03
2019-06-01T18:32:07.642Z,100475.23
2019-06-01T18:34:36.173Z,100474.86
2019-06-01T18:37:05.765Z,100475.83
2019-06-01T18:39:34.496Z,100478.59
2019-06-01T18:42:03.736Z,100472.70
2019-06-01T18:44:32.463Z,100474.17
2019-06-01T18:47:00.954Z,100478.10
2019-06-01T18:49:29.392Z,100480.16
2019-06-01T18:51:57.929Z,100477.61
2019-06-01T18:54:26.430Z,100482.89
2019-06-01T18:57:09.044Z,100476.45
2019-06-01T18:59:25.107Z,100476.42
2019-06-01T19:01:53.584Z,100474.93
2019-06-01T19:04:22.025Z,100477.98
2019-06-01T19:06:50.493Z,100478.48
2019-06-01T19:09:18.943Z,100473.95
2019-06-01T19:11:47.364Z,100469.12
2019-06-01T19:14:16.094Z,100473.00
2019-06-01T19:16:44.641Z,100468.95
2019-06-01T19:19:13.080Z,100470.23
2019-06-01T19:21:41.562Z,100475.47
2019-06-01T19:24:10.524Z,100473.38
2019-06-01T19:26:39.086Z,100483.52
2019-06-01T19:29:10.924Z,100481.16
2019-06-01T19:31:40.011Z,100483.27
2019-06-01T19:34:08.867Z,100488.73
2019-06-01T19:36:39.382Z,100490.44
2019-06-01T19:39:09.213Z,100490.69
2019-06-01T19:41:44.740Z,100494.28
2019-06-01T19:44:07.966Z,100496.98
2019-06-01T19:46:36.388Z,100495.77
2019-06-01T19:49:04.970Z,100499.84
2019-06-01T19:51:33.421Z,100499.71
2019-06-01T19:54:01.860Z,100497.93
2019-06-01T19:56:30.299Z,100499.41
2019-06-01T19:58:58.842Z,100503.12
2019-06-01T20:01:27.278Z,100501.67
2019-06-01T20:03:55.712Z,100499.20
2019-06-01T20:06:24.190Z,100503.23
2019-06-01T20:08:52.617Z,100497.29
2019-06-01T20:11:21.371Z,100497.05
2019-06-01T20:13:49.912Z,100492.70
2019-06-01T20:16:20.218Z,100495.69
2019-06-01T20:18:48.889Z,100495.20
2019-06-01T20:21:18.652Z,100494.14
2019-06-01T20:23:47.531Z,100499.89
2019-06-01T20:26:15.996Z,100498.52
2019-06-01T20:28:44.732Z,100496.30
2019-06-01T20:31:13.694Z,100496.52
2019-06-01T20:33:42.151Z,100495.73
2019-06-01T20:36:12.040Z,100496.20
2019-06-01T20:38:40.544Z,100497.67
2019-06-01T20:41:08.980Z,100497.59
2019-06-01T20:43:37.522Z,100501.98
2019-06-01T20:46:05.980Z,100504.47
2019-06-01T20:48:34.568Z,100492.78
2019-06-01T20:51:03.223Z,100501.24
2019-06-01T20:53:31.659Z,100495.33
2019-06-01T20:56:00.135Z,100500.58
2019-06-01T20:58:28.673Z,100502.31
2019-06-01T21:00:57.172Z,100494.75
2019-06-01T21:03:25.639Z,100494.04
2019-06-01T21:05:54.227Z,100495.21
2019-06-01T21:08:24.042Z,100502.85
2019-06-01T21:10:52.657Z,100500.20
2019-06-01T21:13:22.261Z,100502.31
2019-06-01T21:15:50.849Z,100501.66
2019-06-01T21:18:20.862Z,100500.20
2019-06-01T21:20:49.687Z,100508.75
2019-06-01T21:23:18.680Z,100513.17
2019-06-01T21:25:47.147Z,100517.64
2019-06-01T21:28:17.628Z,100516.98
2019-06-01T21:30:45.839Z,100514.48
2019-06-01T21:33:14.990Z,100511.14
2019-06-01T21:35:43.682Z,100509.67
2019-06-01T21:38:12.111Z,100509.47
2019-06-01T21:40:40.566Z,100514.55
2019-06-01T21:43:23.845Z,100510.42
2019-06-01T21:45:39.176Z,100506.27
2019-06-01T21:48:07.610Z,100513.30
2019-06-01T21:50:36.154Z,100509.22
2019-06-01T21:53:04.732Z,100510.33
2019-06-01T21:55:33.158Z,100507.52
2019-06-01T21:58:01.625Z,100508.14
2019-06-01T22:00:33.740Z,100511.33
2019-06-01T22:03:02.385Z,100504.78
2019-06-01T22:05:30.857Z,100509.02
2019-06-01T22:07:59.516Z,100509.19
2019-06-01T22:10:29.600Z,100511.98
2019-06-01T22:12:58.249Z,100505.06
2019-06-01T22:15:27.971Z,100514.56
2019-06-01T22:17:56.692Z,100510.23
2019-06-01T22:20:26.007Z,100511.90
2019-06-01T22:22:54.546Z,100507.98
2019-06-01T22:25:23.960Z,100508.59
2019-06-01T22:27:52.490Z,100502.18
2019-06-01T22:30:22.270Z,100503.55
2019-06-01T22:32:50.800Z,100502.91
2019-06-01T22:35:20.767Z,100506.47
2019-06-01T22:37:49.349Z,100495.27
2019-06-01T22:40:19.336Z,100492.33
2019-06-01T22:42:48.243Z,100485.37
2019-06-01T22:45:16.826Z,100492.04
2019-06-01T22:47:45.264Z,100491.08
2019-06-01T22:50:13.884Z,100488.00
2019-06-01T22:52:42.335Z,100490.31
2019-06-01T22:55:11.196Z,100495.36
2019-06-01T22:57:43.004Z,100485.09
2019-06-01T23:00:09.960Z,100486.83
2019-06-01T23:02:38.488Z,100490.60
2019-06-01T23:05:07.416Z,100487.91
2019-06-01T23:07:35.849Z,100488.30
2019-06-01T23:10:05.714Z,100483.31
2019-06-01T23:12:34.295Z,100484.00
2019-06-01T23:15:02.798Z,100485.41
2019-06-01T23:17:32.003Z,100475.99
2019-06-01T23:20:00.479Z,100473.14
2019-06-01T23:22:30.036Z,100474.73
2019-06-01T23:24:58.653Z,100469.95
2019-06-01T23:27:28.246Z,100473.12
2019-06-01T23:29:56.820Z,100471.47
2019-06-01T23:32:26.457Z,100470.23
2019-06-01T23:34:54.923Z,100469.25
2019-06-01T23:37:24.632Z,100468.77
2019-06-01T23:39:53.239Z,100469.42
2019-06-01T23:42:22.792Z,100467.20
2019-06-01T23:44:51.223Z,100466.61
2019-06-01T23:47:19.662Z,100465.65
2019-06-01T23:49:48.191Z,100469.42
2019-06-01T23:52:16.638Z,100467.03
2019-06-01T23:54:45.105Z,100463.73
2019-06-01T23:57:13.717Z,100469.36
2019-06-01T23:59:42.146Z,100465.47
